Stewart, Texas
Current Conditions -  °F | °C
As of 5:35 AM on Friday 31 Oct 2014 (Local Time) from KRFI Reporting Station
Clear Clear  
Wind Chill:   Ceiling: Unl
Heat Index:   Visibility: 10mi
Dew Point:   Wind: 0mph
Humidity: 97%   Direction: NA
Pressure: 30.13"   Gusts: NA
Location:  32.1449°N, 94.7416°W
Report Text: KRFI 311035Z AUTO 00000KT 10SM CLR 09/08 A3013 RMK AO2 T00860081
Loading
Personal Weather Stations






























Interactive Weather Map
Tropical Storm Tracking
New forecast layout! Learn more

10-Day Weather Forecast

Advertisements
Track Severe Weather on mobile